createdAt,value
2019-02-19T00:01:26.049Z,24.10
2019-02-19T00:03:56.571Z,21.65
2019-02-19T00:06:27.283Z,25.68
2019-02-19T00:08:58.316Z,23.83
2019-02-19T00:11:28.852Z,22.85
2019-02-19T00:13:59.394Z,24.02
2019-02-19T00:16:30.044Z,27.07
2019-02-19T00:19:00.613Z,26.35
2019-02-19T00:21:31.196Z,26.80
2019-02-19T00:24:01.831Z,29.55
2019-02-19T00:26:32.455Z,26.90
2019-02-19T00:29:02.996Z,26.45
2019-02-19T00:31:33.593Z,28.02
2019-02-19T00:34:04.196Z,27.75
2019-02-19T00:36:34.812Z,26.05
2019-02-19T00:39:06.232Z,24.92
2019-02-19T00:41:36.946Z,28.17
2019-02-19T00:44:07.814Z,26.45
2019-02-19T00:46:38.758Z,28.65
2019-02-19T00:49:09.314Z,32.30
2019-02-19T00:51:39.956Z,30.57
2019-02-19T00:54:10.505Z,33.58
2019-02-19T00:56:41.071Z,29.15
2019-02-19T00:59:11.702Z,33.50
2019-02-19T01:01:42.299Z,29.60
2019-02-19T01:04:12.870Z,29.77
2019-02-19T01:06:43.535Z,31.10
2019-02-19T01:09:15.208Z,35.23
2019-02-19T01:11:45.741Z,26.02
2019-02-19T01:14:16.255Z,35.90
2019-02-19T01:16:46.900Z,33.67
2019-02-19T01:19:17.508Z,32.70
2019-02-19T01:21:48.053Z,32.85
2019-02-19T01:24:18.577Z,32.93
2019-02-19T01:26:49.216Z,32.20
2019-02-19T01:29:19.838Z,33.45
2019-02-19T01:31:50.448Z,43.13
2019-02-19T01:34:20.980Z,38.15
2019-02-19T01:36:51.625Z,34.58
2019-02-19T01:39:22.184Z,39.58
2019-02-19T01:41:52.768Z,40.88
2019-02-19T01:44:23.445Z,38.55
2019-02-19T01:46:53.990Z,38.83
2019-02-19T01:49:24.640Z,41.18
2019-02-19T01:51:55.312Z,41.02
2019-02-19T01:54:25.980Z,47.78
2019-02-19T01:56:56.590Z,45.50
2019-02-19T01:59:27.155Z,46.98
2019-02-19T02:01:57.747Z,49.50
2019-02-19T02:04:28.327Z,44.38
2019-02-19T02:06:58.867Z,45.95
2019-02-19T02:09:29.451Z,49.05
2019-02-19T02:12:00.492Z,49.25
2019-02-19T02:14:31.420Z,43.17
2019-02-19T02:17:02.376Z,47.73
2019-02-19T02:19:33.302Z,50.67
2019-02-19T02:22:03.923Z,44.93
2019-02-19T02:24:35.484Z,45.58
2019-02-19T02:27:07.455Z,47.75
2019-02-19T02:29:38.081Z,50.25
2019-02-19T02:32:08.710Z,50.78
2019-02-19T02:34:39.373Z,49.33
2019-02-19T02:37:10.099Z,50.83
2019-02-19T02:39:40.600Z,54.23
2019-02-19T02:42:11.180Z,54.20
2019-02-19T02:44:41.808Z,53.58
2019-02-19T02:47:12.408Z,54.67
2019-02-19T02:49:43.037Z,59.53
2019-02-19T02:52:13.671Z,54.60
2019-02-19T02:54:44.213Z,57.67
2019-02-19T02:57:15.065Z,62.90
2019-02-19T02:59:45.979Z,57.85
2019-02-19T03:02:16.947Z,64.47
2019-02-19T03:04:47.982Z,62.53
2019-02-19T03:07:39.929Z,69.35
2019-02-19T03:10:10.851Z,54.95
2019-02-19T03:12:41.464Z,63.40
2019-02-19T03:15:12.641Z,57.83
2019-02-19T03:17:43.714Z,63.68
2019-02-19T03:20:14.801Z,59.08
2019-02-19T03:22:45.383Z,63.08
2019-02-19T03:25:15.941Z,62.80
2019-02-19T03:27:46.601Z,57.85
2019-02-19T03:30:18.162Z,70.62
2019-02-19T03:32:48.834Z,69.47
2019-02-19T03:35:19.440Z,65.55
2019-02-19T03:37:50.061Z,60.75
2019-02-19T03:40:20.614Z,67.08
2019-02-19T03:42:51.140Z,64.42
2019-02-19T03:45:21.843Z,76.70
2019-02-19T03:47:52.482Z,78.25
2019-02-19T03:50:23.117Z,60.30
2019-02-19T03:52:53.743Z,77.78
2019-02-19T03:55:24.338Z,77.72
2019-02-19T03:57:55.145Z,58.70
2019-02-19T04:00:26.866Z,77.82
2019-02-19T04:02:57.452Z,83.60
2019-02-19T04:05:28.029Z,72.22
2019-02-19T04:07:58.698Z,68.20
2019-02-19T04:10:29.259Z,87.90
2019-02-19T04:12:59.938Z,73.52
2019-02-19T04:15:30.833Z,82.33
2019-02-19T04:18:01.432Z,80.22
2019-02-19T04:20:32.052Z,86.25
2019-02-19T04:23:02.751Z,81.12
2019-02-19T04:25:33.320Z,85.05
2019-02-19T04:28:06.635Z,89.72
2019-02-19T04:30:37.195Z,95.12
2019-02-19T04:33:07.793Z,94.25
2019-02-19T04:35:38.385Z,90.57
2019-02-19T04:38:08.928Z,93.72
2019-02-19T04:40:39.457Z,87.85
2019-02-19T04:43:09.965Z,92.57
2019-02-19T04:45:40.549Z,73.35
2019-02-19T04:48:11.253Z,101.47
2019-02-19T04:50:41.823Z,79.90
2019-02-19T04:53:12.439Z,82.65
2019-02-19T04:55:43.023Z,92.95
2019-02-19T04:58:14.739Z,81.95
2019-02-19T05:00:45.256Z,94.65
2019-02-19T05:03:15.835Z,83.70
2019-02-19T05:05:46.456Z,91.65
2019-02-19T05:08:16.994Z,99.67
2019-02-19T05:10:47.511Z,99.28
2019-02-19T05:13:18.044Z,92.37
2019-02-19T05:15:48.565Z,98.30
2019-02-19T05:18:19.155Z,98.67
2019-02-19T05:20:49.765Z,105.45
2019-02-19T05:23:20.328Z,96.00
2019-02-19T05:25:50.896Z,108.95
2019-02-19T05:28:21.490Z,95.17
2019-02-19T05:30:52.117Z,109.50
2019-02-19T05:33:22.751Z,108.95
2019-02-19T05:35:53.315Z,96.08
2019-02-19T05:38:23.917Z,102.32
2019-02-19T05:40:54.412Z,98.42
2019-02-19T05:43:25.405Z,102.42
2019-02-19T05:45:55.904Z,107.17
2019-02-19T05:48:26.536Z,93.65
2019-02-19T05:50:57.034Z,105.63
2019-02-19T05:53:27.563Z,96.92
2019-02-19T05:55:58.136Z,108.67
2019-02-19T05:58:28.766Z,98.20
2019-02-19T06:00:59.293Z,109.65
2019-02-19T06:03:29.829Z,104.95
2019-02-19T06:06:00.349Z,113.62
2019-02-19T06:08:30.941Z,99.95
2019-02-19T06:11:01.448Z,100.70
2019-02-19T06:13:32.048Z,112.83
2019-02-19T06:16:02.540Z,93.25
2019-02-19T06:18:33.217Z,117.22
2019-02-19T06:21:03.809Z,110.30
2019-02-19T06:23:34.441Z,101.45
2019-02-19T06:26:05.013Z,123.18
2019-02-19T06:28:35.648Z,103.40
2019-02-19T06:31:06.177Z,102.02
2019-02-19T06:33:36.720Z,104.63
2019-02-19T06:36:07.264Z,93.92
2019-02-19T06:38:37.798Z,115.65
2019-02-19T06:41:08.403Z,116.08
2019-02-19T06:43:40.106Z,121.90
2019-02-19T06:46:11.817Z,105.72
2019-02-19T06:48:42.448Z,113.80
2019-02-19T06:51:12.998Z,96.95
2019-02-19T06:53:43.507Z,118.53
2019-02-19T06:56:14.153Z,109.55
2019-02-19T06:58:44.701Z,110.85
2019-02-19T07:01:15.915Z,124.50
2019-02-19T07:04:02.661Z,112.85
2019-02-19T07:06:33.364Z,119.05
2019-02-19T07:09:04.923Z,97.37
2019-02-19T07:11:35.446Z,110.60
2019-02-19T07:14:05.982Z,105.97
2019-02-19T07:16:36.608Z,114.65
2019-02-19T07:19:07.240Z,115.85
2019-02-19T07:21:37.762Z,115.67
2019-02-19T07:24:08.423Z,110.12
2019-02-19T07:26:39.036Z,116.80
2019-02-19T07:29:09.571Z,106.83
2019-02-19T07:31:40.156Z,106.12
2019-02-19T07:34:10.839Z,107.00
2019-02-19T07:36:41.421Z,106.07
2019-02-19T07:39:12.007Z,113.55
2019-02-19T07:41:42.508Z,120.57
2019-02-19T07:44:13.020Z,109.75
2019-02-19T07:46:43.516Z,118.25
2019-02-19T07:49:14.146Z,108.37
2019-02-19T07:51:44.809Z,116.45
2019-02-19T07:54:15.392Z,117.03
2019-02-19T07:56:46.027Z,113.30
2019-02-19T07:59:16.653Z,118.28
2019-02-19T08:01:47.192Z,109.03
2019-02-19T08:04:17.809Z,118.42
2019-02-19T08:06:48.340Z,103.70
2019-02-19T08:09:18.890Z,113.25
2019-02-19T08:11:49.512Z,118.25
2019-02-19T08:14:20.071Z,128.53
2019-02-19T08:16:50.730Z,115.62
2019-02-19T08:19:21.289Z,118.53
2019-02-19T08:21:51.782Z,118.82
2019-02-19T08:24:22.378Z,117.17
2019-02-19T08:26:53.000Z,117.82
2019-02-19T08:29:23.515Z,105.65
2019-02-19T08:31:54.061Z,123.90
2019-02-19T08:34:24.694Z,104.90
2019-02-19T08:36:55.324Z,105.72
2019-02-19T08:39:25.842Z,118.67
2019-02-19T08:41:56.353Z,109.40
2019-02-19T08:44:26.965Z,116.20
2019-02-19T08:46:57.553Z,118.77
2019-02-19T08:49:28.056Z,115.17
2019-02-19T08:51:58.713Z,118.85
2019-02-19T08:54:29.250Z,123.50
2019-02-19T08:56:59.758Z,120.42
2019-02-19T08:59:30.339Z,96.05
2019-02-19T09:02:00.898Z,100.92
2019-02-19T09:04:31.423Z,115.37
2019-02-19T09:07:01.949Z,113.45
2019-02-19T09:09:32.557Z,118.40
2019-02-19T09:12:03.158Z,96.65
2019-02-19T09:14:33.712Z,106.45
2019-02-19T09:17:04.295Z,117.37
2019-02-19T09:19:34.855Z,114.40
2019-02-19T09:22:05.692Z,106.80
2019-02-19T09:24:36.333Z,114.55
2019-02-19T09:27:06.856Z,108.45
2019-02-19T09:29:38.616Z,111.08
2019-02-19T09:32:09.248Z,120.90
2019-02-19T09:34:39.877Z,106.70
2019-02-19T09:37:12.780Z,103.67
2019-02-19T09:39:43.315Z,106.20
2019-02-19T09:42:13.813Z,115.35
2019-02-19T09:44:44.325Z,112.50
2019-02-19T09:47:14.856Z,112.40
2019-02-19T09:49:45.520Z,115.22
2019-02-19T09:52:16.068Z,117.85
2019-02-19T09:54:46.698Z,120.08
2019-02-19T09:57:17.228Z,118.35
2019-02-19T09:59:47.761Z,107.03
2019-02-19T10:02:18.385Z,106.03
2019-02-19T10:04:48.895Z,108.55
2019-02-19T10:07:19.505Z,109.17
2019-02-19T10:09:49.992Z,110.70
2019-02-19T10:12:20.605Z,123.02
2019-02-19T10:14:51.164Z,113.35
2019-02-19T10:17:21.764Z,113.40
2019-02-19T10:19:52.410Z,103.15
2019-02-19T10:22:22.996Z,106.25
2019-02-19T10:24:53.517Z,102.50
2019-02-19T10:27:24.103Z,109.15
2019-02-19T10:29:54.653Z,99.42
2019-02-19T10:32:25.518Z,100.02
2019-02-19T10:34:56.097Z,104.03
2019-02-19T10:37:26.621Z,105.20
2019-02-19T10:39:57.136Z,107.52
2019-02-19T10:42:27.722Z,96.42
2019-02-19T10:44:58.316Z,94.37
2019-02-19T10:47:28.811Z,101.30
2019-02-19T10:49:59.365Z,110.25
2019-02-19T10:52:29.848Z,104.50
2019-02-19T10:55:00.436Z,83.80
2019-02-19T10:57:30.928Z,94.52
2019-02-19T11:00:01.498Z,103.22
2019-02-19T11:02:33.256Z,100.82
2019-02-19T11:05:03.787Z,93.15
2019-02-19T11:07:34.368Z,97.02
2019-02-19T11:10:05.587Z,93.67
2019-02-19T11:12:36.059Z,95.40
2019-02-19T11:15:06.912Z,88.97
2019-02-19T11:17:37.500Z,96.22
2019-02-19T11:20:09.669Z,99.03
2019-02-19T11:22:40.179Z,99.60
2019-02-19T11:25:12.048Z,95.75
2019-02-19T11:27:42.665Z,97.95
2019-02-19T11:30:15.548Z,90.77
2019-02-19T11:32:46.084Z,94.80
2019-02-19T11:35:16.600Z,94.45
2019-02-19T11:37:47.168Z,95.30
2019-02-19T11:40:17.714Z,94.92
2019-02-19T11:42:48.320Z,95.40
2019-02-19T11:45:18.939Z,93.20
2019-02-19T11:47:50.764Z,90.32
2019-02-19T11:50:21.344Z,86.65
2019-02-19T11:52:51.960Z,87.47
2019-02-19T11:55:22.507Z,88.72
2019-02-19T11:57:53.129Z,92.92
2019-02-19T12:00:29.649Z,93.15
2019-02-19T12:03:00.155Z,98.07
2019-02-19T12:05:30.688Z,92.62
2019-02-19T12:08:01.299Z,89.77
2019-02-19T12:10:31.917Z,92.90
2019-02-19T12:13:02.407Z,89.40
2019-02-19T12:15:35.209Z,90.87
2019-02-19T12:18:05.156Z,89.90
2019-02-19T12:20:35.792Z,97.02
2019-02-19T12:23:06.364Z,89.85
2019-02-19T12:25:36.886Z,88.22
2019-02-19T12:28:07.475Z,85.62
2019-02-19T12:30:38.128Z,87.17
2019-02-19T12:33:08.740Z,89.22
2019-02-19T12:35:39.369Z,87.92
2019-02-19T12:38:09.956Z,84.70
2019-02-19T12:40:40.535Z,90.80
2019-02-19T12:43:11.136Z,80.85
2019-02-19T12:45:41.693Z,84.30
2019-02-19T12:48:13.373Z,88.80
2019-02-19T12:50:44.123Z,86.42
2019-02-19T12:53:14.572Z,85.32
2019-02-19T12:55:45.171Z,82.17
2019-02-19T12:58:15.786Z,88.30
2019-02-19T13:00:46.342Z,79.30
2019-02-19T13:03:16.948Z,82.35
2019-02-19T13:05:47.584Z,80.22
2019-02-19T13:08:18.128Z,83.82
2019-02-19T13:10:48.768Z,84.00
2019-02-19T13:13:19.397Z,84.35
2019-02-19T13:15:50.016Z,83.72
2019-02-19T13:18:20.608Z,85.87
2019-02-19T13:20:51.275Z,78.07
2019-02-19T13:23:21.799Z,85.10
2019-02-19T13:25:52.463Z,83.85
2019-02-19T13:28:23.007Z,81.50
2019-02-19T13:30:53.521Z,87.72
2019-02-19T13:33:24.025Z,88.05
2019-02-19T13:35:55.577Z,84.47
2019-02-19T13:38:26.175Z,88.33
2019-02-19T13:40:59.208Z,83.85
2019-02-19T13:43:29.812Z,79.82
2019-02-19T13:46:00.399Z,82.47
2019-02-19T13:48:30.972Z,80.65
2019-02-19T13:51:01.562Z,82.27
2019-02-19T13:53:45.024Z,77.17
2019-02-19T13:56:15.570Z,80.38
2019-02-19T13:58:46.116Z,78.62
2019-02-19T14:01:16.693Z,76.33
2019-02-19T14:04:05.821Z,84.62
2019-02-19T14:06:36.338Z,75.17
2019-02-19T14:09:06.925Z,83.85
2019-02-19T14:11:38.905Z,79.32
2019-02-19T14:14:28.380Z,75.95
2019-02-19T14:17:05.121Z,75.95
2019-02-19T14:19:45.476Z,79.27
2019-02-19T14:22:43.774Z,76.65
2019-02-19T14:25:31.783Z,73.52
2019-02-19T14:28:20.138Z,75.45
2019-02-19T14:31:07.149Z,85.32
2019-02-19T14:33:56.755Z,81.47
2019-02-19T14:36:44.589Z,77.87
2019-02-19T14:39:39.197Z,73.90
2019-02-19T14:42:27.249Z,72.20
2019-02-19T14:45:31.744Z,79.15
2019-02-19T14:48:16.288Z,81.17
2019-02-19T14:51:11.309Z,76.17
2019-02-19T14:54:06.836Z,77.10
2019-02-19T14:56:47.411Z,69.95
2019-02-19T14:59:51.718Z,78.40
2019-02-19T15:02:41.138Z,78.70
2019-02-19T15:05:30.517Z,77.47
2019-02-19T15:08:20.142Z,75.72
2019-02-19T15:11:24.468Z,73.05
2019-02-19T15:14:14.408Z,70.22
2019-02-19T15:17:19.220Z,76.80
2019-02-19T15:20:07.226Z,73.65
2019-02-19T15:22:48.279Z,75.47
2019-02-19T15:25:36.479Z,78.60
2019-02-19T15:28:14.429Z,77.95
2019-02-19T15:31:03.877Z,78.15
2019-02-19T15:33:42.322Z,74.17
2019-02-19T15:36:37.802Z,78.33
2019-02-19T15:39:26.038Z,75.28
2019-02-19T15:42:21.307Z,68.22
2019-02-19T15:45:09.670Z,76.60
2019-02-19T15:47:59.122Z,85.80
2019-02-19T15:50:47.447Z,76.17
2019-02-19T15:53:46.011Z,76.97
2019-02-19T15:56:38.329Z,83.90
2019-02-19T15:59:33.758Z,73.55
2019-02-19T16:02:26.226Z,72.97
2019-02-19T16:05:30.650Z,80.70
2019-02-19T16:08:31.832Z,71.60
2019-02-19T16:11:36.656Z,75.22
2019-02-19T16:14:26.068Z,79.58
2019-02-19T16:17:21.412Z,73.95
2019-02-19T16:20:00.158Z,79.95
2019-02-19T16:22:55.538Z,78.62
2019-02-19T16:25:43.740Z,72.25
2019-02-19T16:28:33.158Z,77.97
2019-02-19T16:31:20.910Z,80.57
2019-02-19T16:33:58.247Z,83.15
2019-02-19T16:37:02.598Z,87.67
2019-02-19T16:39:44.576Z,74.47
2019-02-19T16:42:32.324Z,82.72
2019-02-19T16:45:21.760Z,83.75
2019-02-19T16:48:10.549Z,91.25
2019-02-19T16:50:58.844Z,77.32
2019-02-19T16:53:48.249Z,84.77
2019-02-19T16:56:25.583Z,89.83
2019-02-19T16:59:13.792Z,82.88
2019-02-19T17:02:05.847Z,82.67
2019-02-19T17:04:46.806Z,84.17
2019-02-19T17:07:28.237Z,84.80
2019-02-19T17:10:20.703Z,91.87
2019-02-19T17:12:58.256Z,89.60
2019-02-19T17:16:00.499Z,88.03
2019-02-19T17:18:57.249Z,88.97
2019-02-19T17:21:46.656Z,81.95
2019-02-19T17:24:54.406Z,82.78
2019-02-19T17:27:33.150Z,82.42
2019-02-19T17:30:23.543Z,85.30
2019-02-19T17:33:02.165Z,81.65
2019-02-19T17:35:54.348Z,77.17
2019-02-19T17:38:52.685Z,76.55
2019-02-19T17:41:44.740Z,74.92
2019-02-19T17:44:25.893Z,75.40
2019-02-19T17:47:14.991Z,68.10
2019-02-19T17:49:55.036Z,74.77
2019-02-19T17:52:56.824Z,67.87
2019-02-19T17:56:01.189Z,66.55
2019-02-19T17:58:45.607Z,64.87
2019-02-19T18:01:25.834Z,58.28
2019-02-19T18:04:27.521Z,58.78
2019-02-19T18:07:15.933Z,61.58
2019-02-19T18:10:01.530Z,58.87
2019-02-19T18:13:00.086Z,54.83
2019-02-19T18:15:48.068Z,57.67
2019-02-19T18:18:47.164Z,53.55
2019-02-19T18:21:18.917Z,52.27
2019-02-19T18:23:50.442Z,48.28
2019-02-19T18:26:21.053Z,53.52
2019-02-19T18:28:51.605Z,43.15
2019-02-19T18:31:22.182Z,46.50
2019-02-19T18:33:52.677Z,49.45
2019-02-19T18:36:23.321Z,46.13
2019-02-19T18:38:53.833Z,46.23
2019-02-19T18:41:24.456Z,41.63
2019-02-19T18:43:55.061Z,38.05
2019-02-19T18:46:25.608Z,40.78
2019-02-19T18:48:56.275Z,40.55
2019-02-19T18:51:26.815Z,41.30
2019-02-19T18:53:57.523Z,37.55
2019-02-19T18:56:28.118Z,38.45
2019-02-19T18:58:58.662Z,37.28
2019-02-19T19:01:29.534Z,36.75
2019-02-19T19:04:00.039Z,35.58
2019-02-19T19:06:30.675Z,32.05
2019-02-19T19:09:01.222Z,33.28
2019-02-19T19:11:33.716Z,33.88
2019-02-19T19:14:06.789Z,31.15
2019-02-19T19:16:37.921Z,33.88
2019-02-19T19:19:08.464Z,29.60
2019-02-19T19:21:39.660Z,34.15
2019-02-19T19:24:10.757Z,31.33
2019-02-19T19:26:41.701Z,29.80
2019-02-19T19:29:12.629Z,30.90
2019-02-19T19:31:44.520Z,27.65
2019-02-19T19:34:15.126Z,36.83
2019-02-19T19:36:45.786Z,29.67
2019-02-19T19:39:16.293Z,29.27
2019-02-19T19:41:46.915Z,32.45
2019-02-19T19:44:17.528Z,29.48
2019-02-19T19:46:48.506Z,28.75
2019-02-19T19:49:19.045Z,25.32
2019-02-19T19:51:49.659Z,25.27
2019-02-19T19:54:20.607Z,27.37
2019-02-19T19:56:51.253Z,24.90
2019-02-19T19:59:22.074Z,23.62
2019-02-19T20:01:52.649Z,26.27
2019-02-19T20:04:23.245Z,24.20
2019-02-19T20:06:54.200Z,26.30
2019-02-19T20:09:24.957Z,27.65
2019-02-19T20:11:55.478Z,25.65
2019-02-19T20:14:26.380Z,26.20
2019-02-19T20:16:56.930Z,25.37
2019-02-19T20:19:27.641Z,26.23
2019-02-19T20:21:58.708Z,28.75
2019-02-19T20:24:29.316Z,25.23
2019-02-19T20:26:59.944Z,27.82
2019-02-19T20:29:30.687Z,25.43
2019-02-19T20:32:01.282Z,26.57
2019-02-19T20:34:32.968Z,25.43
2019-02-19T20:37:04.440Z,29.82
2019-02-19T20:39:35.066Z,22.15
2019-02-19T20:42:05.754Z,25.43
2019-02-19T20:44:36.432Z,28.10
2019-02-19T20:47:06.989Z,28.38
2019-02-19T20:49:37.552Z,28.92
2019-02-19T20:52:08.070Z,28.20
2019-02-19T20:54:38.683Z,25.48
2019-02-19T20:57:09.716Z,28.67
2019-02-19T20:59:40.638Z,27.90
2019-02-19T21:02:11.270Z,30.97
2019-02-19T21:04:41.842Z,31.33
2019-02-19T21:07:12.461Z,28.45
2019-02-19T21:09:44.209Z,29.52
2019-02-19T21:12:16.428Z,27.13
2019-02-19T21:14:47.612Z,30.40
2019-02-19T21:17:18.471Z,31.85
2019-02-19T21:19:49.628Z,28.80
2019-02-19T21:22:20.553Z,31.48
2019-02-19T21:24:51.462Z,27.07
2019-02-19T21:27:22.544Z,28.90
2019-02-19T21:29:53.769Z,33.78
2019-02-19T21:32:24.834Z,30.12
2019-02-19T21:34:55.836Z,30.32
2019-02-19T21:37:26.977Z,31.37
2019-02-19T21:39:57.734Z,28.47
2019-02-19T21:42:28.804Z,31.10
2019-02-19T21:44:59.821Z,29.45
2019-02-19T21:47:30.801Z,30.45
2019-02-19T21:50:01.790Z,29.67
2019-02-19T21:52:33.164Z,29.57
2019-02-19T21:55:04.683Z,31.60
2019-02-19T21:57:36.776Z,31.12
2019-02-19T22:00:08.458Z,33.05
2019-02-19T22:02:41.029Z,31.95
2019-02-19T22:05:12.049Z,29.40
2019-02-19T22:07:43.098Z,28.90
2019-02-19T22:10:14.137Z,26.73
2019-02-19T22:12:45.191Z,24.70
2019-02-19T22:15:16.121Z,30.00
2019-02-19T22:17:47.064Z,26.48
2019-02-19T22:20:36.368Z,27.52
2019-02-19T22:23:07.784Z,30.25
2019-02-19T22:25:38.747Z,28.98
2019-02-19T22:28:09.662Z,26.80
2019-02-19T22:30:40.689Z,31.90
2019-02-19T22:33:11.996Z,22.30
2019-02-19T22:35:42.490Z,32.40
2019-02-19T22:38:13.642Z,28.27
2019-02-19T22:40:44.700Z,30.75
2019-02-19T22:43:15.352Z,23.67
2019-02-19T22:45:45.928Z,25.85
2019-02-19T22:48:16.997Z,26.57
2019-02-19T22:50:48.109Z,21.33
2019-02-19T22:53:36.721Z,21.73
2019-02-19T22:56:23.594Z,25.30
2019-02-19T22:58:54.537Z,25.68
2019-02-19T23:01:35.083Z,23.30
2019-02-19T23:04:06.249Z,23.90
2019-02-19T23:06:37.274Z,22.25
2019-02-19T23:09:08.506Z,23.77
2019-02-19T23:11:39.883Z,21.33
2019-02-19T23:14:11.948Z,17.42
2019-02-19T23:16:43.002Z,21.70
2019-02-19T23:19:14.018Z,20.00
2019-02-19T23:21:46.197Z,22.48
2019-02-19T23:24:17.136Z,20.65
2019-02-19T23:26:48.084Z,21.27
2019-02-19T23:29:19.020Z,22.45
2019-02-19T23:31:50.049Z,18.77
2019-02-19T23:34:21.116Z,16.25
2019-02-19T23:36:58.120Z,18.62
2019-02-19T23:39:29.016Z,17.57
2019-02-19T23:41:59.948Z,17.48
2019-02-19T23:44:31.049Z,17.70
2019-02-19T23:47:01.950Z,17.40
2019-02-19T23:49:32.995Z,19.87
2019-02-19T23:52:04.123Z,17.27
2019-02-19T23:54:34.976Z,15.45
2019-02-19T23:57:06.008Z,13.75
2019-02-19T23:59:37.060Z,17.85
